Aviation Digital Data Service (ADDS)

Output produced by METARs form (0931 UTC 02 August 2021)
found at http://aviationweather.gov/metar/data/
 
KFME 020915Z AUTO 00000KT 3SM CLR 15/15 A2997 RMK AO1
KBWI 020854Z 30005KT 10SM CLR 17/15 A2993 RMK AO2 SLP135 T01670150 53010
KBWI 020913Z 0209/0312 30005KT P6SM SKC 
     FM021800 33007KT P6SM FEW060 
     FM022300 VRB03KT P6SM SKC 
     FM030900 00000KT P6SM BKN080 
     FM031100 00000KT P6SM OVC080
       
KESN 020915Z AUTO 00000KT 10SM CLR 18/18 A2997 RMK AO2 T01810175
KCGE 020915Z AUTO 36008KT 10SM CLR 20/18 A2993 RMK A01
KSBY 020854Z AUTO 32007KT 9SM CLR 19/18 A2991 RMK AO2 SLP129 T01890178 53015 PWINO
KSBY 020842Z 0209/0306 32007KT P6SM SCT003 
     TEMPO 0209/0212 2SM BR BKN003 
     FM021200 33008KT P6SM FEW120 
     FM030000 33002KT P6SM SKC 
     FM030400 00000KT P6SM SCT250
       
KOXB 020853Z AUTO 33007KT 10SM CLR 19/18 A2989 RMK AO2 SLP122 T01940183 53009
KFDK 020915Z AUTO 32006KT 7SM CLR 18/14 A2996 RMK AO2
KHGR 020853Z AUTO 31007KT 7SM CLR 17/13 A2998 RMK AO2 SLP155 T01670133 53010 $